Time;durP1;ratioP1;P1;durP2;ratioP2;P2;SDS_P1;SDS_P2;PMS_P1;PMS_P2;Temp;Humidity;BMP_temperature;BMP_pressure;BME280_temperature;BME280_humidity;BME280_pressure;Samples;Min_cycle;Max_cycle;Signal;HPM_P1;HPM_P2
2021/09/04 00:02:21;;;;;;;15.97;14.57;;;12.90;99.90;;;;;;4982284;28;20209;-75
2021/09/04 00:04:48;;;;;;;15.20;13.93;;;12.80;99.90;;;;;;4987989;28;20216;-76
2021/09/04 00:07:14;;;;;;;15.07;13.67;;;12.80;99.90;;;;;;4982881;28;20209;-77
2021/09/04 00:09:42;;;;;;;15.90;14.23;;;12.80;99.90;;;;;;4985216;28;20208;-75
2021/09/04 00:12:09;;;;;;;15.97;14.50;;;12.70;99.90;;;;;;4980473;28;20230;-76
2021/09/04 00:14:36;;;;;;;15.20;13.80;;;12.70;99.90;;;;;;5010315;23;20315;-80
2021/09/04 00:17:04;;;;;;;14.03;12.83;;;12.70;99.90;;;;;;4983078;28;20205;-80
2021/09/04 00:19:32;;;;;;;15.50;14.10;;;12.70;99.90;;;;;;4988312;28;20215;-80
2021/09/04 00:21:59;;;;;;;14.80;13.50;;;12.60;99.90;;;;;;4996608;28;20252;-80
2021/09/04 00:24:26;;;;;;;15.70;14.30;;;12.60;99.90;;;;;;4982746;28;20594;-80
2021/09/04 00:26:53;;;;;;;11.30;8.50;;;12.60;99.90;;;;;;4978408;28;20202;-80
2021/09/04 00:29:20;;;;;;;10.20;8.80;;;12.60;99.90;;;;;;4972303;28;20297;-80
2021/09/04 00:31:48;;;;;;;10.67;8.83;;;12.50;99.90;;;;;;4970686;28;20197;-80
2021/09/04 00:34:15;;;;;;;11.03;8.80;;;12.50;99.90;;;;;;4968642;28;20768;-80
2021/09/04 00:36:43;;;;;;;11.00;8.63;;;12.50;99.90;;;;;;4971774;28;20258;-80
2021/09/04 00:39:10;;;;;;;14.83;9.53;;;12.40;99.90;;;;;;4990524;28;20227;-80
2021/09/04 00:41:37;;;;;;;10.87;8.83;;;12.40;99.90;;;;;;4971013;28;20633;-80
2021/09/04 00:44:05;;;;;;;11.33;9.17;;;12.30;99.90;;;;;;4976085;28;20225;-80
2021/09/04 00:46:32;;;;;;;10.23;8.40;;;12.30;99.90;;;;;;4964709;28;20207;-80
2021/09/04 00:48:59;;;;;;;10.77;9.23;;;12.30;99.90;;;;;;4982305;28;20208;-79
2021/09/04 00:51:26;;;;;;;11.73;9.40;;;12.30;99.90;;;;;;4993114;28;20607;-80
2021/09/04 00:53:54;;;;;;;10.60;8.47;;;12.30;99.90;;;;;;4974443;28;20276;-79
2021/09/04 00:56:22;;;;;;;11.10;9.30;;;12.30;99.90;;;;;;4989347;28;20255;-79
2021/09/04 00:58:49;;;;;;;11.27;8.60;;;12.30;99.90;;;;;;4974994;28;20193;-80
2021/09/04 01:01:17;;;;;;;13.60;9.80;;;12.30;99.90;;;;;;4976758;28;20239;-79
2021/09/04 01:03:45;;;;;;;13.73;9.27;;;12.30;99.90;;;;;;4986381;28;20203;-80
2021/09/04 01:06:14;;;;;;;11.80;9.03;;;12.20;99.90;;;;;;4987107;28;20190;-80
2021/09/04 01:08:42;;;;;;;11.83;8.80;;;12.20;99.90;;;;;;4986292;28;20214;-80
2021/09/04 01:11:15;;;;;;;11.30;8.67;;;12.10;99.90;;;;;;4997783;28;20195;-80
2021/09/04 01:13:43;;;;;;;10.00;8.17;;;12.20;99.90;;;;;;4987937;28;20231;-80
2021/09/04 01:16:11;;;;;;;10.40;8.70;;;12.10;99.90;;;;;;4979143;28;20207;-80
2021/09/04 01:18:38;;;;;;;10.20;8.93;;;12.10;99.90;;;;;;4986500;28;20952;-80
2021/09/04 01:21:06;;;;;;;12.07;8.70;;;12.10;99.90;;;;;;4980501;28;20203;-80
2021/09/04 01:23:32;;;;;;;11.63;9.47;;;12.10;99.90;;;;;;4982101;28;20544;-80
2021/09/04 01:26:03;;;;;;;12.17;9.40;;;12.10;99.90;;;;;;4979769;28;20245;-80
2021/09/04 01:28:30;;;;;;;12.27;8.67;;;12.10;99.90;;;;;;4975752;28;20203;-79
2021/09/04 01:30:57;;;;;;;9.87;8.00;;;12.00;99.90;;;;;;4991777;28;20202;-80
2021/09/04 01:33:24;;;;;;;10.63;9.20;;;12.10;99.90;;;;;;4978433;28;20272;-80
2021/09/04 01:35:50;;;;;;;10.90;8.30;;;12.10;99.90;;;;;;4971735;28;20246;-80
2021/09/04 01:38:17;;;;;;;10.97;8.33;;;12.00;99.90;;;;;;4987409;28;20266;-79
2021/09/04 01:40:44;;;;;;;10.97;9.00;;;12.00;99.90;;;;;;4996713;28;20300;-80
2021/09/04 01:43:13;;;;;;;10.37;8.73;;;12.00;99.90;;;;;;4979936;28;20191;-80
2021/09/04 01:45:40;;;;;;;11.90;9.47;;;12.00;99.90;;;;;;4973759;28;20223;-80
2021/09/04 01:48:07;;;;;;;10.50;8.73;;;12.00;99.90;;;;;;4978902;28;20190;-80
2021/09/04 01:50:34;;;;;;;10.77;9.00;;;12.00;99.90;;;;;;4976943;28;20198;-80
2021/09/04 01:53:01;;;;;;;11.80;9.50;;;11.90;99.90;;;;;;4980167;28;20722;-80
2021/09/04 01:55:27;;;;;;;11.23;8.63;;;12.00;99.90;;;;;;4982327;28;20218;-80
2021/09/04 01:57:54;;;;;;;11.30;8.63;;;12.00;99.90;;;;;;4972641;28;20631;-79
2021/09/04 02:00:22;;;;;;;13.13;10.07;;;12.00;99.90;;;;;;4980360;28;20206;-80
2021/09/04 02:02:49;;;;;;;11.77;9.50;;;12.00;99.90;;;;;;4984294;28;20215;-80
2021/09/04 02:05:16;;;;;;;11.30;9.53;;;12.00;99.90;;;;;;4974832;28;20645;-80
2021/09/04 02:07:43;;;;;;;12.33;9.40;;;12.00;99.90;;;;;;4976010;28;20234;-80
2021/09/04 02:10:10;;;;;;;11.83;9.57;;;12.00;99.90;;;;;;4976073;28;20578;-80
2021/09/04 02:12:37;;;;;;;15.33;11.10;;;12.00;99.90;;;;;;4982424;28;20214;-80
2021/09/04 02:15:07;;;;;;;11.30;9.97;;;11.90;99.90;;;;;;4984183;28;20217;-80
2021/09/04 02:17:36;;;;;;;12.53;9.67;;;12.00;99.90;;;;;;4974758;28;20205;-80
2021/09/04 02:20:05;;;;;;;12.03;9.33;;;12.00;99.90;;;;;;4972809;28;20217;-80
2021/09/04 02:22:32;;;;;;;11.90;10.03;;;12.00;99.90;;;;;;4973620;28;20206;-80
2021/09/04 02:25:02;;;;;;;11.20;9.50;;;12.00;99.90;;;;;;4973672;28;20229;-80
2021/09/04 02:27:32;;;;;;;12.67;10.47;;;12.00;99.90;;;;;;4982185;28;20195;-80
2021/09/04 02:29:59;;;;;;;13.73;10.30;;;12.00;99.90;;;;;;4978287;28;20258;-79
2021/09/04 02:32:26;;;;;;;13.00;10.83;;;12.00;99.90;;;;;;4980399;28;20604;-80
2021/09/04 02:34:55;;;;;;;11.43;9.77;;;12.00;99.90;;;;;;4974035;28;20300;-80
2021/09/04 02:37:22;;;;;;;11.93;10.33;;;12.00;99.90;;;;;;4972886;28;20226;-80
2021/09/04 02:39:49;;;;;;;17.17;15.67;;;12.10;99.90;;;;;;4971944;28;20227;-80
2021/09/04 02:42:17;;;;;;;17.57;16.00;;;12.10;99.90;;;;;;4982030;28;20718;-79
2021/09/04 02:44:44;;;;;;;18.03;16.13;;;12.10;99.90;;;;;;4973849;28;20719;-80
2021/09/04 02:47:11;;;;;;;16.77;15.37;;;12.00;99.90;;;;;;4975669;28;20246;-80
2021/09/04 02:49:39;;;;;;;16.83;15.43;;;12.00;99.90;;;;;;4976110;28;20233;-80
2021/09/04 02:52:08;;;;;;;17.53;16.13;;;12.00;99.90;;;;;;4989744;28;20201;-80
2021/09/04 02:54:37;;;;;;;17.37;15.77;;;12.00;99.90;;;;;;4976207;28;20273;-79
2021/09/04 02:57:07;;;;;;;16.37;14.97;;;12.00;99.90;;;;;;4963177;28;20202;-78
2021/09/04 02:59:35;;;;;;;18.03;16.47;;;12.00;99.90;;;;;;4969343;28;20209;-80
2021/09/04 03:02:04;;;;;;;15.10;13.70;;;12.00;99.90;;;;;;4973926;28;20197;-78
2021/09/04 03:04:34;;;;;;;17.03;15.53;;;12.00;99.90;;;;;;4966823;28;20624;-78
2021/09/04 03:07:02;;;;;;;15.07;13.67;;;11.90;99.90;;;;;;4964840;28;20206;-78
2021/09/04 03:09:30;;;;;;;14.73;13.43;;;11.80;99.90;;;;;;4968898;28;20198;-80
2021/09/04 03:11:57;;;;;;;15.90;14.43;;;11.80;99.90;;;;;;4966111;28;20656;-78
2021/09/04 03:14:25;;;;;;;15.70;14.23;;;11.80;99.90;;;;;;4962187;28;20291;-78
2021/09/04 03:16:52;;;;;;;15.17;13.77;;;11.80;99.90;;;;;;4970486;28;20203;-78
2021/09/04 03:19:20;;;;;;;15.70;14.20;;;11.80;99.90;;;;;;4962972;28;20697;-77
2021/09/04 03:21:47;;;;;;;15.03;13.60;;;11.80;99.90;;;;;;4971926;28;20199;-78
2021/09/04 03:24:16;;;;;;;15.27;13.87;;;11.80;99.90;;;;;;4972513;28;20264;-78
2021/09/04 03:26:48;;;;;;;15.47;14.07;;;11.70;99.90;;;;;;4973758;28;20194;-78
2021/09/04 03:29:17;;;;;;;16.67;15.17;;;11.70;99.90;;;;;;4972547;28;20229;-78
2021/09/04 03:31:45;;;;;;;16.53;15.03;;;11.70;99.90;;;;;;4973214;28;20730;-77
2021/09/04 03:34:12;;;;;;;15.83;14.43;;;11.70;99.90;;;;;;4971349;28;20699;-78
2021/09/04 03:36:39;;;;;;;14.77;13.53;;;11.70;99.90;;;;;;4972402;28;20206;-78
2021/09/04 03:39:07;;;;;;;17.23;15.67;;;11.60;99.90;;;;;;4971996;28;20195;-78
2021/09/04 03:41:34;;;;;;;16.00;14.50;;;11.60;99.90;;;;;;4966290;28;20257;-78
2021/09/04 03:44:02;;;;;;;15.63;14.20;;;11.60;99.90;;;;;;4971761;28;20219;-78
2021/09/04 03:46:29;;;;;;;15.70;14.20;;;11.50;99.90;;;;;;4971548;28;20207;-78
2021/09/04 03:49:00;;;;;;;15.47;14.07;;;11.50;99.90;;;;;;4969728;28;20278;-78
2021/09/04 03:51:27;;;;;;;16.37;14.67;;;11.40;99.90;;;;;;4973074;28;20208;-78
2021/09/04 03:53:54;;;;;;;15.57;14.07;;;11.30;99.90;;;;;;4972906;28;20229;-78
2021/09/04 03:56:22;;;;;;;16.20;14.60;;;11.30;99.90;;;;;;4967329;28;20234;-78
2021/09/04 03:58:50;;;;;;;16.73;15.13;;;11.30;99.90;;;;;;4956715;28;20706;-78
2021/09/04 04:01:20;;;;;;;15.37;14.07;;;11.30;99.90;;;;;;4956452;28;20195;-78
2021/09/04 04:03:47;;;;;;;11.17;9.73;;;11.30;99.90;;;;;;4955222;28;20341;-78
2021/09/04 04:06:14;;;;;;;10.87;9.17;;;11.30;99.90;;;;;;4975452;28;20257;-78
2021/09/04 04:08:41;;;;;;;10.57;8.77;;;11.30;99.90;;;;;;4955129;28;20660;-78
2021/09/04 04:11:10;;;;;;;12.37;9.73;;;11.20;99.90;;;;;;4960661;28;20302;-78
2021/09/04 04:13:38;;;;;;;12.70;9.43;;;11.10;99.90;;;;;;4973555;28;20225;-78
2021/09/04 04:16:06;;;;;;;9.93;8.67;;;11.10;99.90;;;;;;4967083;28;20221;-77
2021/09/04 04:18:35;;;;;;;13.53;10.00;;;11.10;99.90;;;;;;4966936;28;20198;-78
2021/09/04 04:21:03;;;;;;;13.20;10.47;;;11.10;99.90;;;;;;4964852;28;20292;-78
2021/09/04 04:23:30;;;;;;;12.60;9.97;;;11.10;99.90;;;;;;4972031;28;20194;-80
2021/09/04 04:25:57;;;;;;;12.20;9.83;;;11.10;99.90;;;;;;4987947;28;20234;-79
2021/09/04 04:28:25;;;;;;;11.13;9.63;;;11.00;99.90;;;;;;4993988;28;20214;-80
2021/09/04 04:30:52;;;;;;;11.47;9.80;;;11.00;99.90;;;;;;4985431;28;20266;-78
2021/09/04 04:33:22;;;;;;;11.80;9.03;;;11.00;99.90;;;;;;4998138;28;20217;-78
2021/09/04 04:35:50;;;;;;;10.67;8.60;;;10.90;99.90;;;;;;4979522;28;20213;-78
2021/09/04 04:38:18;;;;;;;10.80;8.80;;;10.90;99.90;;;;;;4985208;28;20208;-78
2021/09/04 04:40:46;;;;;;;11.67;9.23;;;10.90;99.90;;;;;;4977318;28;20205;-78
2021/09/04 04:43:12;;;;;;;10.13;9.00;;;11.00;99.90;;;;;;4978919;28;20621;-78
2021/09/04 04:45:40;;;;;;;10.50;8.60;;;10.90;99.90;;;;;;4978228;28;20217;-78
2021/09/04 04:48:08;;;;;;;9.37;8.00;;;11.00;99.90;;;;;;4989501;28;20201;-78
2021/09/04 04:50:36;;;;;;;10.60;8.80;;;11.00;99.90;;;;;;4974241;28;20225;-78
2021/09/04 04:53:05;;;;;;;10.13;8.40;;;11.00;99.90;;;;;;4991551;28;20543;-78
2021/09/04 04:55:33;;;;;;;11.00;8.83;;;11.00;99.90;;;;;;4967817;28;20214;-77
2021/09/04 04:58:00;;;;;;;9.40;8.20;;;11.00;99.90;;;;;;4970825;28;20212;-79
2021/09/04 05:00:30;;;;;;;10.90;9.20;;;11.00;99.90;;;;;;4974145;28;20230;-80
2021/09/04 05:02:56;;;;;;;10.07;8.63;;;11.00;99.90;;;;;;4974889;28;20197;-79
2021/09/04 05:05:24;;;;;;;10.43;8.77;;;11.00;99.90;;;;;;4971578;28;20729;-79
2021/09/04 05:07:51;;;;;;;10.43;8.57;;;11.00;99.90;;;;;;4981084;28;20208;-80
2021/09/04 05:10:19;;;;;;;9.83;8.80;;;11.00;99.90;;;;;;4968409;28;20206;-79
2021/09/04 05:12:46;;;;;;;11.17;8.63;;;11.00;99.90;;;;;;4979040;28;20665;-80
2021/09/04 05:15:14;;;;;;;11.27;8.00;;;11.00;99.90;;;;;;4986762;28;20232;-78
2021/09/04 05:17:40;;;;;;;10.20;8.00;;;11.10;99.90;;;;;;4979655;28;20198;-80
2021/09/04 05:20:09;;;;;;;9.90;8.17;;;11.10;99.90;;;;;;4976062;28;20227;-80
2021/09/04 05:22:37;;;;;;;11.00;9.13;;;11.10;99.90;;;;;;4971406;28;20643;-80
2021/09/04 05:25:05;;;;;;;9.20;8.07;;;11.10;99.90;;;;;;4969178;28;20597;-79
2021/09/04 05:27:33;;;;;;;12.97;9.20;;;11.10;99.90;;;;;;4970094;28;20202;-79
2021/09/04 05:30:00;;;;;;;11.50;8.87;;;11.20;99.90;;;;;;4983052;28;20636;-78
2021/09/04 05:32:27;;;;;;;10.93;9.13;;;11.30;99.90;;;;;;4978606;28;20205;-79
2021/09/04 05:34:54;;;;;;;10.17;8.67;;;11.30;99.90;;;;;;4976566;28;20241;-79
2021/09/04 05:37:20;;;;;;;10.80;8.70;;;11.50;99.90;;;;;;4977099;28;20380;-77
2021/09/04 05:39:48;;;;;;;9.27;7.77;;;11.60;99.90;;;;;;4975049;28;20205;-80
2021/09/04 05:42:15;;;;;;;10.10;7.77;;;11.80;99.90;;;;;;4986593;28;20197;-83
2021/09/04 05:44:43;;;;;;;9.30;8.40;;;11.80;99.90;;;;;;4970392;28;20280;-79
2021/09/04 05:47:10;;;;;;;8.97;7.50;;;12.00;99.90;;;;;;4977656;28;20195;-78
2021/09/04 05:49:37;;;;;;;7.83;7.03;;;12.10;99.90;;;;;;4967328;28;20205;-80
2021/09/04 05:52:04;;;;;;;9.90;7.80;;;12.30;99.90;;;;;;4975123;28;20204;-78
2021/09/04 05:54:31;;;;;;;11.57;10.07;;;12.40;99.90;;;;;;4974484;28;20233;-78
2021/09/04 05:56:58;;;;;;;10.77;8.97;;;12.60;99.90;;;;;;4969003;28;20206;-78
2021/09/04 05:59:25;;;;;;;11.50;9.00;;;12.80;99.90;;;;;;4992376;28;20209;-77
2021/09/04 06:01:53;;;;;;;10.57;9.07;;;12.90;99.90;;;;;;4968672;28;20204;-78
2021/09/04 06:04:20;;;;;;;11.50;9.50;;;13.00;99.90;;;;;;4991381;28;20227;-81
2021/09/04 06:06:47;;;;;;;11.87;9.50;;;13.20;99.90;;;;;;4976942;28;20658;-76
2021/09/04 06:09:14;;;;;;;11.03;8.90;;;13.30;99.90;;;;;;4977980;28;20195;-83
2021/09/04 06:11:41;;;;;;;10.13;9.03;;;13.40;99.90;;;;;;4976646;28;20208;-83
2021/09/04 06:14:09;;;;;;;9.90;8.90;;;13.40;99.90;;;;;;4987958;23;20232;-82
2021/09/04 06:16:36;;;;;;;10.50;9.37;;;13.60;99.90;;;;;;4994167;28;20674;-76
2021/09/04 06:19:04;;;;;;;10.23;9.00;;;13.60;99.90;;;;;;4992553;28;20208;-78
2021/09/04 06:21:31;;;;;;;9.37;8.17;;;13.80;99.90;;;;;;4993677;28;20254;-78
2021/09/04 06:23:58;;;;;;;11.47;9.70;;;13.90;99.90;;;;;;4985893;28;20263;-80
2021/09/04 06:26:25;;;;;;;10.13;9.03;;;13.90;99.90;;;;;;4985332;28;20194;-77
2021/09/04 06:28:52;;;;;;;11.43;8.60;;;13.90;99.90;;;;;;4996493;28;20200;-75
2021/09/04 06:31:19;;;;;;;10.00;8.93;;;14.00;99.90;;;;;;4985177;28;20208;-76
2021/09/04 06:33:46;;;;;;;10.73;8.67;;;14.00;99.90;;;;;;4993046;28;20189;-75
2021/09/04 06:36:14;;;;;;;9.43;8.13;;;14.10;99.90;;;;;;4994327;28;20226;-76
2021/09/04 06:38:40;;;;;;;10.07;8.83;;;14.10;99.90;;;;;;4994092;28;20209;-76
2021/09/04 06:41:08;;;;;;;10.87;8.70;;;14.10;99.90;;;;;;4992825;28;20720;-76
2021/09/04 06:43:34;;;;;;;8.60;7.13;;;14.20;99.90;;;;;;4993102;28;20296;-78
2021/09/04 06:46:01;;;;;;;9.17;8.10;;;14.30;99.90;;;;;;5008257;28;20253;-76
2021/09/04 06:48:28;;;;;;;8.57;7.67;;;14.30;99.90;;;;;;4996297;28;20732;-78
2021/09/04 06:50:55;;;;;;;8.53;7.37;;;14.40;99.90;;;;;;4997307;28;20193;-78
2021/09/04 06:53:23;;;;;;;8.70;7.80;;;14.50;99.90;;;;;;4986422;28;20264;-78
2021/09/04 06:55:50;;;;;;;8.90;7.67;;;14.60;99.90;;;;;;4988017;28;20232;-79
2021/09/04 06:58:18;;;;;;;9.83;8.83;;;14.70;99.90;;;;;;4992021;28;20674;-77
2021/09/04 07:00:45;;;;;;;8.67;7.67;;;14.80;99.90;;;;;;4992968;28;20209;-77
2021/09/04 07:03:12;;;;;;;9.87;7.90;;;14.90;99.90;;;;;;4993702;28;20251;-77
2021/09/04 07:05:39;;;;;;;8.80;7.40;;;15.00;99.90;;;;;;4992165;28;20224;-78
2021/09/04 07:08:06;;;;;;;8.97;7.77;;;15.10;99.90;;;;;;4993958;28;20629;-78
2021/09/04 07:10:34;;;;;;;7.77;6.90;;;15.20;99.90;;;;;;4994862;28;20197;-78
2021/09/04 07:13:01;;;;;;;9.67;8.20;;;15.40;99.90;;;;;;4993637;28;20248;-79
2021/09/04 07:15:27;;;;;;;9.40;8.07;;;15.50;99.90;;;;;;4994505;28;20233;-78
2021/09/04 07:17:54;;;;;;;13.57;12.50;;;15.80;99.90;;;;;;4995702;28;20200;-79
2021/09/04 07:20:21;;;;;;;13.00;11.87;;;16.20;99.90;;;;;;4987679;28;20769;-77
2021/09/04 07:22:48;;;;;;;12.77;11.67;;;16.50;99.90;;;;;;4990032;28;20203;-79
2021/09/04 07:25:16;;;;;;;11.10;10.00;;;16.90;99.90;;;;;;4993672;28;20237;-78
2021/09/04 07:27:45;;;;;;;10.70;9.70;;;17.30;99.90;;;;;;4990191;28;20216;-77
2021/09/04 07:30:12;;;;;;;9.80;8.80;;;17.70;99.90;;;;;;4995263;28;20207;-78
2021/09/04 07:32:39;;;;;;;10.17;8.33;;;18.10;99.90;;;;;;4995119;28;20632;-78
2021/09/04 07:35:07;;;;;;;9.67;8.50;;;18.40;99.90;;;;;;4995358;28;20221;-79
2021/09/04 07:37:33;;;;;;;8.83;7.80;;;18.60;99.90;;;;;;4994744;28;20256;-78
2021/09/04 07:40:00;;;;;;;9.83;8.80;;;19.00;99.90;;;;;;4994816;28;20201;-77
2021/09/04 07:42:27;;;;;;;9.03;8.13;;;19.40;99.90;;;;;;4995081;28;20206;-78
2021/09/04 07:44:55;;;;;;;9.20;8.30;;;19.70;99.90;;;;;;4981414;28;20225;-77
2021/09/04 07:47:22;;;;;;;12.40;10.40;;;19.90;99.90;;;;;;4995192;28;20209;-77
2021/09/04 07:49:49;;;;;;;10.50;9.60;;;20.30;99.90;;;;;;4995734;28;20207;-77
2021/09/04 07:52:16;;;;;;;11.97;10.97;;;20.50;99.90;;;;;;4994561;28;20208;-77
2021/09/04 07:54:42;;;;;;;12.50;11.40;;;20.80;99.90;;;;;;4987691;28;20282;-77
2021/09/04 07:57:09;;;;;;;10.50;9.40;;;21.20;99.90;;;;;;4991409;28;20200;-77
2021/09/04 07:59:36;;;;;;;12.63;10.60;;;21.30;99.90;;;;;;4994916;28;20189;-78
2021/09/04 08:02:04;;;;;;;13.67;12.47;;;21.50;99.90;;;;;;4994439;28;20270;-78
2021/09/04 08:04:31;;;;;;;14.27;13.17;;;21.70;99.90;;;;;;4986624;28;20252;-78
2021/09/04 08:06:58;;;;;;;13.20;12.20;;;21.80;99.90;;;;;;4994392;28;20252;-78
2021/09/04 08:09:25;;;;;;;13.73;12.53;;;21.90;99.90;;;;;;4989849;28;20205;-80
2021/09/04 08:11:51;;;;;;;13.57;12.27;;;22.00;99.90;;;;;;4990834;28;20237;-77
2021/09/04 08:14:18;;;;;;;12.33;11.33;;;22.10;99.90;;;;;;4984572;28;20226;-76
2021/09/04 08:16:45;;;;;;;13.63;12.43;;;22.40;99.90;;;;;;4991196;28;20202;-77
2021/09/04 08:19:13;;;;;;;13.80;12.60;;;22.50;99.90;;;;;;4993239;28;20209;-79
2021/09/04 08:21:40;;;;;;;13.60;12.50;;;22.50;99.90;;;;;;4993213;28;20201;-78
2021/09/04 08:24:08;;;;;;;15.00;13.77;;;22.40;99.90;;;;;;4984563;28;20205;-79
2021/09/04 08:26:34;;;;;;;14.63;13.33;;;22.60;99.90;;;;;;4992924;28;20256;-78
2021/09/04 08:29:01;;;;;;;13.93;12.73;;;22.70;99.90;;;;;;4994897;28;20208;-78
2021/09/04 08:31:28;;;;;;;15.30;14.00;;;23.00;99.90;;;;;;4993358;28;20227;-78
2021/09/04 08:33:55;;;;;;;15.40;14.20;;;23.10;99.90;;;;;;4994792;28;20247;-79
2021/09/04 08:36:23;;;;;;;15.37;14.10;;;23.10;99.90;;;;;;4994364;28;20229;-79
2021/09/04 08:38:50;;;;;;;13.43;12.23;;;23.10;99.90;;;;;;4993404;28;20193;-81
2021/09/04 08:41:17;;;;;;;11.83;10.70;;;23.40;99.90;;;;;;4994969;28;20674;-84
2021/09/04 08:43:45;;;;;;;9.93;7.93;;;23.50;99.90;;;;;;4993487;28;20621;-82
2021/09/04 08:46:14;;;;;;;10.77;8.90;;;23.80;99.90;;;;;;4994000;28;20210;-81
2021/09/04 08:48:43;;;;;;;8.67;7.30;;;23.80;99.90;;;;;;4992408;28;20209;-79
2021/09/04 08:51:10;;;;;;;9.03;8.20;;;24.10;99.90;;;;;;4994661;28;20193;-81
2021/09/04 08:53:38;;;;;;;11.17;10.03;;;24.20;99.90;;;;;;4988959;28;20210;-80
2021/09/04 08:56:08;;;;;;;9.90;8.90;;;24.30;99.90;;;;;;4994616;28;20702;-85
2021/09/04 08:58:35;;;;;;;9.87;8.87;;;24.30;99.90;;;;;;4989415;28;20256;-82
2021/09/04 09:01:03;;;;;;;10.50;8.93;;;24.20;99.90;;;;;;4990446;28;20208;-84
2021/09/04 09:03:30;;;;;;;11.27;7.97;;;24.40;99.90;;;;;;4997655;28;20210;-79
2021/09/04 09:05:58;;;;;;;15.63;14.03;;;24.50;99.90;;;;;;4995640;28;20224;-78
2021/09/04 09:08:27;;;;;;;12.80;11.70;;;24.70;99.90;;;;;;4993283;28;20208;-79
2021/09/04 09:10:59;;;;;;;13.80;12.43;;;24.80;99.90;;;;;;4997120;28;20224;-79
2021/09/04 09:13:28;;;;;;;14.77;13.50;;;24.90;99.90;;;;;;4996331;28;20208;-78
2021/09/04 09:15:56;;;;;;;15.57;14.30;;;24.50;99.90;;;;;;4998115;28;20217;-78
2021/09/04 09:18:27;;;;;;;14.30;13.10;;;24.10;99.90;;;;;;4995498;28;20213;-77
2021/09/04 09:21:00;;;;;;;14.80;13.60;;;24.40;99.90;;;;;;4995809;28;20611;-78
2021/09/04 09:23:27;;;;;;;15.27;14.00;;;24.70;99.90;;;;;;5007136;28;20202;-80
2021/09/04 09:25:56;;;;;;;13.10;12.13;;;25.00;99.90;;;;;;4989475;28;20221;-79
2021/09/04 09:28:24;;;;;;;14.63;13.53;;;24.80;99.90;;;;;;4995198;28;20224;-80
2021/09/04 09:30:55;;;;;;;14.03;12.93;;;24.80;99.90;;;;;;5008535;28;20288;-80
2021/09/04 09:33:24;;;;;;;15.90;14.50;;;24.90;99.90;;;;;;4988492;28;20209;-84
2021/09/04 09:35:52;;;;;;;13.70;12.43;;;24.60;99.90;;;;;;4992991;28;20224;-81
2021/09/04 09:38:20;;;;;;;12.97;11.87;;;24.60;99.90;;;;;;4996945;28;20260;-79
2021/09/04 09:40:49;;;;;;;13.77;12.57;;;24.90;99.90;;;;;;4995673;28;20252;-80
2021/09/04 09:43:22;;;;;;;13.00;11.93;;;24.70;99.90;;;;;;4993786;28;20210;-83
2021/09/04 09:45:51;;;;;;;12.83;11.67;;;24.80;99.90;;;;;;4995856;28;20256;-80
2021/09/04 09:48:20;;;;;;;12.73;11.73;;;24.70;99.90;;;;;;4996411;28;20208;-82
2021/09/04 09:50:47;;;;;;;12.73;11.73;;;24.90;99.90;;;;;;4987339;28;20285;-81
2021/09/04 09:53:14;;;;;;;12.70;11.70;;;24.80;99.90;;;;;;4996969;28;20239;-81
2021/09/04 09:55:45;;;;;;;12.33;11.43;;;25.00;99.90;;;;;;4996871;28;20678;-81
2021/09/04 09:58:12;;;;;;;13.13;11.93;;;24.80;99.90;;;;;;4979738;28;20217;-84
2021/09/04 10:00:41;;;;;;;12.50;11.50;;;24.50;99.90;;;;;;4988550;28;20213;-80
2021/09/04 10:03:10;;;;;;;12.60;11.57;;;24.80;99.90;;;;;;4996217;28;20207;-81
2021/09/04 10:05:38;;;;;;;11.93;10.93;;;24.80;99.90;;;;;;4996178;28;20738;-81
2021/09/04 10:08:05;;;;;;;12.47;11.47;;;24.60;99.90;;;;;;4993393;28;20690;-80
2021/09/04 10:10:34;;;;;;;12.43;11.23;;;24.60;99.90;;;;;;4996332;28;20201;-80
2021/09/04 10:13:02;;;;;;;12.97;11.93;;;24.50;99.90;;;;;;4995285;28;20236;-81
2021/09/04 10:15:32;;;;;;;12.20;11.10;;;24.60;99.90;;;;;;4995374;28;20232;-80
2021/09/04 10:18:03;;;;;;;12.17;11.03;;;24.60;99.90;;;;;;4994674;28;20251;-81
2021/09/04 10:20:30;;;;;;;13.00;12.00;;;24.40;99.90;;;;;;4994218;28;20204;-81
2021/09/04 10:22:58;;;;;;;12.13;11.07;;;24.20;99.90;;;;;;5006143;28;20589;-81
2021/09/04 10:25:27;;;;;;;12.30;11.23;;;24.00;99.90;;;;;;4991922;28;20232;-80
2021/09/04 10:27:58;;;;;;;11.70;10.80;;;24.00;99.90;;;;;;4994016;28;20201;-80
2021/09/04 10:30:28;;;;;;;12.47;11.47;;;24.10;99.90;;;;;;4992264;28;20261;-81
2021/09/04 10:33:05;;;;;;;11.93;11.03;;;24.10;99.90;;;;;;4986579;28;20261;-81
2021/09/04 10:35:44;;;;;;;12.40;11.40;;;24.00;99.90;;;;;;4996120;28;20236;-81
2021/09/04 10:38:27;;;;;;;12.33;11.27;;;23.80;99.90;;;;;;4994601;28;20449;-81
2021/09/04 10:41:15;;;;;;;11.57;10.67;;;23.70;99.90;;;;;;4996953;28;20678;-82
2021/09/04 10:43:43;;;;;;;11.73;10.83;;;23.80;99.90;;;;;;4994739;28;20202;-81
2021/09/04 10:46:15;;;;;;;12.27;11.27;;;24.10;99.90;;;;;;4998066;28;20221;-81
2021/09/04 10:48:43;;;;;;;12.27;11.17;;;24.00;99.90;;;;;;4997846;28;20252;-80
2021/09/04 10:51:12;;;;;;;12.00;11.10;;;23.90;99.90;;;;;;4997818;28;20189;-84
2021/09/04 10:53:43;;;;;;;12.50;11.50;;;23.90;99.90;;;;;;4997188;28;20209;-82
2021/09/04 10:56:21;;;;;;;11.30;10.40;;;24.00;99.90;;;;;;4992575;28;20308;-81
2021/09/04 10:58:48;;;;;;;11.07;10.17;;;23.90;99.90;;;;;;4997339;28;20197;-82
2021/09/04 11:01:19;;;;;;;10.80;10.00;;;23.80;99.90;;;;;;4994568;28;20206;-80
2021/09/04 11:03:54;;;;;;;10.30;9.50;;;23.90;99.90;;;;;;4994757;28;20214;-84
2021/09/04 11:06:22;;;;;;;10.20;9.40;;;23.80;99.90;;;;;;4991476;28;20220;-81
2021/09/04 11:08:50;;;;;;;11.13;10.13;;;23.90;99.90;;;;;;4979239;28;20696;-84
2021/09/04 11:11:19;;;;;;;10.53;9.53;;;23.70;99.90;;;;;;4993998;28;20197;-81
2021/09/04 11:13:48;;;;;;;11.40;10.50;;;23.70;99.90;;;;;;4978885;28;20252;-82
2021/09/04 11:16:32;;;;;;;11.77;10.77;;;23.60;99.90;;;;;;4981015;28;20228;-81
2021/09/04 11:19:13;;;;;;;11.80;10.80;;;23.50;99.90;;;;;;4979112;28;20253;-81
2021/09/04 11:21:59;;;;;;;11.90;11.00;;;23.40;99.90;;;;;;5031360;27;2043357;-81
2021/09/04 11:24:32;;;;;;;11.33;10.43;;;23.50;99.90;;;;;;5069714;28;20268;-81
2021/09/04 11:27:03;;;;;;;12.13;11.23;;;23.50;99.90;;;;;;5051573;28;20205;-80
2021/09/04 11:29:36;;;;;;;12.00;10.90;;;23.40;99.90;;;;;;5068465;28;20232;-80
2021/09/04 11:32:03;;;;;;;11.60;10.73;;;23.40;99.90;;;;;;5070964;28;20199;-82
2021/09/04 11:34:48;;;;;;;11.10;10.30;;;23.40;99.90;;;;;;5113407;22;21502;-80
2021/09/04 11:37:29;;;;;;;11.07;10.23;;;23.40;99.90;;;;;;5047813;28;20269;-80
2021/09/04 11:39:58;;;;;;;10.63;9.73;;;23.50;99.90;;;;;;5044620;28;20227;-80
2021/09/04 11:42:29;;;;;;;11.07;10.27;;;23.40;99.90;;;;;;5045164;28;20248;-80
2021/09/04 11:44:58;;;;;;;11.40;10.50;;;23.40;99.90;;;;;;5057098;28;20289;-80
2021/09/04 11:47:26;;;;;;;11.67;10.63;;;23.50;99.90;;;;;;5025940;28;20699;-77
2021/09/04 11:49:55;;;;;;;11.07;10.23;;;23.30;99.90;;;;;;5030204;28;20262;-80
2021/09/04 11:52:26;;;;;;;11.33;10.33;;;23.40;99.90;;;;;;5012329;28;20199;-80
2021/09/04 11:55:05;;;;;;;11.47;10.67;;;23.30;99.90;;;;;;5015642;28;20248;-79
2021/09/04 12:00:26;;;;;;;11.13;10.33;;;23.30;99.90;;;;;;5034333;28;20220;-81
2021/09/04 12:03:04;;;;;;;11.17;10.27;;;23.30;99.90;;;;;;5022636;28;20200;-80
2021/09/04 12:05:38;;;;;;;10.83;10.03;;;23.30;99.90;;;;;;5029040;28;20222;-80
2021/09/04 12:08:08;;;;;;;11.03;10.13;;;23.30;99.90;;;;;;5019362;28;20221;-81
2021/09/04 12:10:38;;;;;;;11.03;10.13;;;23.30;99.90;;;;;;5018209;28;20690;-80
2021/09/04 12:13:12;;;;;;;11.87;10.77;;;23.30;99.90;;;;;;5042884;28;20258;-80
2021/09/04 12:15:53;;;;;;;11.00;10.10;;;23.40;99.90;;;;;;5038495;28;20210;-82
2021/09/04 12:18:30;;;;;;;11.00;10.00;;;23.40;99.90;;;;;;5044448;28;20678;-80
2021/09/04 12:21:19;;;;;;;11.67;10.67;;;23.40;99.90;;;;;;5047166;28;20215;-79
2021/09/04 12:23:48;;;;;;;11.77;10.73;;;23.40;99.90;;;;;;5046804;28;20579;-79
2021/09/04 12:26:23;;;;;;;11.00;10.20;;;23.40;99.90;;;;;;5043846;28;20215;-85
2021/09/04 12:28:50;;;;;;;12.20;11.20;;;23.50;99.90;;;;;;5032017;28;20214;-80
2021/09/04 12:31:19;;;;;;;11.37;10.47;;;23.40;99.90;;;;;;5027229;28;20664;-78
2021/09/04 12:34:05;;;;;;;12.07;10.97;;;23.30;99.90;;;;;;5014067;28;20215;-80
2021/09/04 12:36:44;;;;;;;10.60;9.80;;;23.30;99.90;;;;;;5013026;28;20208;-80
2021/09/04 12:39:16;;;;;;;10.57;9.77;;;23.40;99.90;;;;;;5016788;28;20272;-80
2021/09/04 12:42:08;;;;;;;10.93;10.03;;;23.40;99.90;;;;;;5014120;28;20239;-80
2021/09/04 12:44:41;;;;;;;11.70;10.70;;;23.50;99.90;;;;;;5009639;28;20615;-79